Time;durP1;ratioP1;P1;durP2;ratioP2;P2;SDS_P1;SDS_P2;PMS_P1;PMS_P2;Temp;Humidity;BMP_temperature;BMP_pressure;BME280_temperature;BME280_humidity;BME280_pressure;Samples;Min_cycle;Max_cycle;Signal;HPM_P1;HPM_P2
2022/09/22 00:00:42;;;;;;;12.98;12.27;;;;;;;10.91;100.00;100847.28;5041061;28;20036;-72
2022/09/22 00:03:08;;;;;;;12.77;12.07;;;;;;;10.87;100.00;100850.44;5052433;28;20029;-73
2022/09/22 00:05:34;;;;;;;12.95;12.25;;;;;;;10.91;100.00;100843.78;5052070;28;20067;-72
2022/09/22 00:08:00;;;;;;;13.30;12.60;;;;;;;10.84;100.00;100848.94;5052795;28;20028;-72
2022/09/22 00:10:27;;;;;;;13.40;12.60;;;;;;;10.80;100.00;100842.34;5051606;28;20025;-72
2022/09/22 00:12:54;;;;;;;12.98;12.27;;;;;;;10.85;100.00;100845.28;5052946;28;20043;-71
2022/09/22 00:15:20;;;;;;;12.60;12.00;;;;;;;10.87;100.00;100845.97;5052853;28;20021;-71
2022/09/22 00:17:46;;;;;;;12.95;12.25;;;;;;;10.83;100.00;100841.16;5052331;28;20108;-71
2022/09/22 00:20:12;;;;;;;13.05;12.35;;;;;;;10.86;100.00;100841.63;5051396;28;20459;-71
2022/09/22 00:22:39;;;;;;;13.27;12.57;;;;;;;10.89;100.00;100837.84;5052370;28;20025;-72
2022/09/22 00:25:06;;;;;;;13.20;12.50;;;;;;;10.85;100.00;100828.53;5048263;28;20024;-72
2022/09/22 00:27:32;;;;;;;12.70;12.00;;;;;;;10.90;100.00;100835.00;5051303;28;20512;-72
2022/09/22 00:29:57;;;;;;;12.57;11.88;;;;;;;10.96;100.00;100830.84;5052379;28;20059;-71
2022/09/22 00:32:22;;;;;;;12.60;12.00;;;;;;;11.00;100.00;100837.47;5052535;28;20052;-72
2022/09/22 00:34:48;;;;;;;12.57;11.98;;;;;;;11.00;100.00;100838.28;5052347;28;20028;-72
2022/09/22 00:37:14;;;;;;;12.80;12.10;;;;;;;11.06;100.00;100818.19;5051063;28;20025;-72
2022/09/22 00:39:40;;;;;;;13.00;12.30;;;;;;;11.05;100.00;100830.66;5052148;28;20028;-73
2022/09/22 00:42:05;;;;;;;12.57;11.90;;;;;;;10.97;100.00;100824.53;5041355;28;20032;-72
2022/09/22 00:44:31;;;;;;;12.98;12.27;;;;;;;10.91;100.00;100835.84;5052056;28;20052;-72
2022/09/22 00:47:04;;;;;;;13.25;12.55;;;;;;;10.97;100.00;100827.19;5051074;28;20468;-72
2022/09/22 00:49:47;;;;;;;12.70;12.00;;;;;;;10.93;100.00;100832.00;5051646;28;20031;-72
2022/09/22 00:52:17;;;;;;;12.70;12.02;;;;;;;11.03;100.00;100822.03;5051712;28;20100;-72
2022/09/22 00:54:43;;;;;;;12.63;12.00;;;;;;;10.94;100.00;100823.06;5051445;28;20439;-72
2022/09/22 00:57:32;;;;;;;12.98;12.27;;;;;;;11.02;100.00;100819.56;5050928;28;20162;-73
2022/09/22 01:00:00;;;;;;;12.70;12.02;;;;;;;10.99;100.00;100822.53;5052187;28;20108;-73
2022/09/22 01:02:26;;;;;;;12.73;12.10;;;;;;;11.03;100.00;100823.88;5051855;28;20102;-72
2022/09/22 01:04:52;;;;;;;12.98;12.27;;;;;;;10.97;100.00;100821.88;5052196;28;20052;-71
2022/09/22 01:07:20;;;;;;;12.77;12.07;;;;;;;10.85;100.00;100800.16;5051971;28;20032;-71
2022/09/22 01:09:46;;;;;;;13.00;12.30;;;;;;;10.92;100.00;100825.03;5051476;28;20395;-71
2022/09/22 01:12:11;;;;;;;12.80;12.13;;;;;;;10.87;100.00;100816.78;5045370;28;20031;-71
2022/09/22 01:14:54;;;;;;;12.75;12.05;;;;;;;10.99;100.00;100817.22;5047681;28;20028;-71
2022/09/22 01:17:34;;;;;;;12.57;11.88;;;;;;;10.99;100.00;100825.19;5042937;28;20060;-72
2022/09/22 01:20:24;;;;;;;13.07;12.38;;;;;;;11.05;100.00;100830.66;5038567;28;20028;-72
2022/09/22 01:23:23;;;;;;;13.02;12.32;;;;;;;11.02;100.00;100824.88;5051809;28;20104;-72
2022/09/22 01:26:02;;;;;;;12.80;12.10;;;;;;;11.04;100.00;100828.19;5051571;28;20028;-72
2022/09/22 01:29:05;;;;;;;13.55;12.75;;;;;;;11.07;100.00;100827.81;5048084;28;20024;-72
2022/09/22 01:31:44;;;;;;;12.63;11.93;;;;;;;11.05;100.00;100824.50;5051575;28;20021;-72
2022/09/22 01:34:20;;;;;;;13.13;12.43;;;;;;;11.03;100.00;100829.19;5051443;28;20027;-72
2022/09/22 01:36:50;;;;;;;13.10;12.40;;;;;;;11.04;100.00;100822.88;5051306;28;20032;-73
2022/09/22 01:39:25;;;;;;;13.20;12.50;;;;;;;11.11;100.00;100821.19;5051147;28;20025;-74
2022/09/22 01:41:57;;;;;;;12.73;12.02;;;;;;;11.19;100.00;100826.47;5054003;28;20021;-74
2022/09/22 01:44:41;;;;;;;12.80;12.10;;;;;;;11.13;100.00;100821.84;5051718;28;20075;-74
2022/09/22 01:47:13;;;;;;;12.93;12.23;;;;;;;11.08;100.00;100809.06;5050608;28;20045;-72
2022/09/22 01:49:44;;;;;;;12.40;11.80;;;;;;;11.10;100.00;100816.88;5042847;28;20103;-72
2022/09/22 01:52:15;;;;;;;12.73;12.02;;;;;;;11.19;100.00;100834.44;5051349;28;20052;-72
2022/09/22 01:54:51;;;;;;;12.95;12.25;;;;;;;11.25;100.00;100825.78;5061449;28;20029;-71
2022/09/22 01:57:26;;;;;;;13.18;12.48;;;;;;;11.19;100.00;100826.47;5052859;28;20408;-73
2022/09/22 01:59:57;;;;;;;13.60;12.85;;;;;;;11.21;100.00;100821.81;5054798;28;20036;-71
2022/09/22 02:02:32;;;;;;;13.25;12.55;;;;;;;11.18;100.00;100822.16;5050260;28;20782;-73
2022/09/22 02:05:03;;;;;;;13.00;12.30;;;;;;;11.16;100.00;100821.47;5055630;28;20036;-71
2022/09/22 02:07:34;;;;;;;13.05;12.35;;;;;;;11.11;100.00;100817.69;5053268;28;20040;-71
2022/09/22 02:10:05;;;;;;;12.57;11.88;;;;;;;11.18;100.00;100821.34;5055068;28;20051;-72
2022/09/22 02:12:31;;;;;;;12.80;12.10;;;;;;;11.12;100.00;100817.53;5040739;28;20087;-72
2022/09/22 02:14:57;;;;;;;12.80;12.10;;;;;;;11.22;100.00;100822.63;5048769;28;20020;-72
2022/09/22 02:17:22;;;;;;;13.05;12.35;;;;;;;11.12;100.00;100816.69;5054763;28;20093;-71
2022/09/22 02:19:49;;;;;;;12.77;12.07;;;;;;;11.16;100.00;100823.31;5046646;28;20072;-73
2022/09/22 02:22:14;;;;;;;12.70;12.00;;;;;;;11.25;100.00;100819.66;5054806;28;20032;-72
2022/09/22 02:24:44;;;;;;;13.07;12.38;;;;;;;11.31;100.00;100819.78;5054749;28;20025;-72
2022/09/22 02:27:25;;;;;;;13.50;12.70;;;;;;;11.25;100.00;100819.66;5054616;28;20407;-71
2022/09/22 02:30:04;;;;;;;12.82;12.13;;;;;;;11.27;100.00;100831.75;5054576;28;20017;-72
2022/09/22 02:32:30;;;;;;;12.90;12.20;;;;;;;11.23;100.00;100822.44;5054513;28;20070;-72
2022/09/22 02:34:56;;;;;;;13.90;13.10;;;;;;;11.21;100.00;100819.16;5051992;28;20053;-71
2022/09/22 02:37:38;;;;;;;13.23;12.52;;;;;;;11.30;100.00;100822.59;5042554;28;20053;-71
2022/09/22 02:40:12;;;;;;;13.27;12.57;;;;;;;11.28;100.00;100820.13;5049472;28;20060;-71
2022/09/22 02:42:44;;;;;;;13.10;12.40;;;;;;;11.27;100.00;100829.09;5052844;28;20029;-71
2022/09/22 02:45:17;;;;;;;13.73;12.93;;;;;;;11.34;100.00;100824.75;5051861;28;20075;-71
2022/09/22 02:47:49;;;;;;;13.30;12.60;;;;;;;11.43;100.00;100819.41;5052864;28;20489;-71
2022/09/22 02:50:19;;;;;;;12.40;11.80;;;;;;;11.34;100.00;100826.56;5054570;28;20025;-73
2022/09/22 02:52:44;;;;;;;12.90;12.20;;;;;;;11.34;100.00;100823.91;5048310;28;20033;-71
2022/09/22 02:55:12;;;;;;;12.90;12.20;;;;;;;11.38;100.00;100821.72;5051854;28;20023;-70
2022/09/22 02:57:38;;;;;;;12.60;12.00;;;;;;;11.42;100.00;100836.34;5054108;28;20025;-71
2022/09/22 03:00:04;;;;;;;13.10;12.40;;;;;;;11.33;100.00;100819.63;5053971;28;20044;-71
2022/09/22 03:02:30;;;;;;;13.25;12.55;;;;;;;11.43;100.00;100838.00;5053714;28;20452;-71
2022/09/22 03:04:56;;;;;;;13.63;12.82;;;;;;;11.40;100.00;100835.69;5053770;28;20031;-72
2022/09/22 03:07:22;;;;;;;13.00;12.30;;;;;;;11.44;100.00;100836.97;5054536;28;20522;-72
2022/09/22 03:09:47;;;;;;;12.80;12.10;;;;;;;11.41;100.00;100834.69;5049488;28;20103;-71
2022/09/22 03:12:13;;;;;;;12.63;11.93;;;;;;;11.20;100.00;100828.13;5054461;28;20032;-72
2022/09/22 03:14:38;;;;;;;12.90;12.20;;;;;;;11.38;100.00;100840.31;5054499;28;20033;-72
2022/09/22 03:17:04;;;;;;;13.60;12.80;;;;;;;11.43;100.00;100838.00;5053114;28;20021;-73
2022/09/22 03:19:29;;;;;;;13.25;12.55;;;;;;;11.43;100.00;100832.69;5053832;28;20032;-72
2022/09/22 03:21:55;;;;;;;12.57;11.98;;;;;;;11.39;100.00;100842.00;5052811;28;20028;-72
2022/09/22 03:24:21;;;;;;;12.75;12.05;;;;;;;11.33;100.00;100849.66;5053891;28;20114;-72
2022/09/22 03:26:46;;;;;;;12.85;12.15;;;;;;;11.39;100.00;100853.47;5052174;28;20033;-72
2022/09/22 03:29:11;;;;;;;12.77;12.07;;;;;;;11.26;100.00;100855.81;5053583;28;20017;-72
2022/09/22 03:31:37;;;;;;;13.30;12.60;;;;;;;11.40;100.00;100856.94;5053437;28;20400;-72
2022/09/22 03:34:03;;;;;;;12.98;12.27;;;;;;;11.52;100.00;100855.53;5053243;28;20063;-71
2022/09/22 03:36:29;;;;;;;12.85;12.15;;;;;;;11.52;100.00;100843.09;5054029;28;20025;-71
2022/09/22 03:38:55;;;;;;;12.50;11.88;;;;;;;11.34;100.00;100851.31;5053398;28;20025;-72
2022/09/22 03:41:20;;;;;;;13.20;12.50;;;;;;;11.36;100.00;100853.78;5053362;28;20408;-72
2022/09/22 03:43:46;;;;;;;12.82;12.13;;;;;;;11.41;100.00;100861.25;5050928;28;20429;-72
2022/09/22 03:46:13;;;;;;;13.23;12.52;;;;;;;11.39;100.00;100860.59;5053308;28;20067;-72
2022/09/22 03:48:38;;;;;;;12.85;12.15;;;;;;;11.36;100.00;100851.13;5043585;28;20751;-71
2022/09/22 03:51:04;;;;;;;12.45;11.85;;;;;;;11.39;100.00;100855.28;5053493;28;20107;-71
2022/09/22 03:53:29;;;;;;;13.20;12.48;;;;;;;11.43;100.00;100854.75;5051407;28;20176;-71
2022/09/22 03:56:07;;;;;;;13.45;12.65;;;;;;;11.43;100.00;100846.78;5052828;28;20500;-75
2022/09/22 03:58:35;;;;;;;13.02;12.32;;;;;;;11.51;100.00;100851.22;5046559;28;20067;-74
2022/09/22 04:01:00;;;;;;;15.30;14.30;;;;;;;11.53;100.00;100851.88;5042591;28;20045;-73
2022/09/22 04:03:27;;;;;;;12.98;12.27;;;;;;;11.64;100.00;100854.16;5052252;28;20024;-74
2022/09/22 04:05:52;;;;;;;12.40;11.80;;;;;;;11.57;100.00;100856.69;5052167;28;20029;-72
2022/09/22 04:08:18;;;;;;;12.77;12.07;;;;;;;11.52;100.00;100863.50;5054964;28;20432;-72
2022/09/22 04:10:44;;;;;;;12.63;11.95;;;;;;;11.74;100.00;100861.91;5053139;28;20583;-73
2022/09/22 04:13:11;;;;;;;12.80;12.10;;;;;;;11.86;100.00;100860.56;5051867;28;20025;-73
2022/09/22 04:15:37;;;;;;;13.02;12.32;;;;;;;11.83;100.00;100872.38;5038834;28;20384;-73
2022/09/22 04:18:02;;;;;;;12.73;12.02;;;;;;;11.73;100.00;100866.41;5051527;28;20028;-72
2022/09/22 04:20:29;;;;;;;12.88;12.18;;;;;;;11.77;100.00;100865.06;5051683;28;20029;-73
2022/09/22 04:22:54;;;;;;;13.32;12.63;;;;;;;11.98;100.00;100861.00;5052970;28;20087;-73
2022/09/22 04:25:20;;;;;;;12.80;12.10;;;;;;;12.03;100.00;100858.63;5052012;28;20028;-72
2022/09/22 04:27:45;;;;;;;13.50;12.70;;;;;;;11.90;100.00;100867.19;5052785;28;20025;-72
2022/09/22 04:30:11;;;;;;;12.80;12.10;;;;;;;11.93;100.00;100847.41;5051107;28;20024;-72
2022/09/22 04:32:37;;;;;;;13.40;12.70;;;;;;;11.96;100.00;100855.00;5052231;28;20028;-73
2022/09/22 04:35:03;;;;;;;13.02;12.32;;;;;;;11.74;100.00;100849.44;5051097;28;20025;-73
2022/09/22 04:37:28;;;;;;;12.50;11.90;;;;;;;11.97;100.00;100846.88;5052502;28;20032;-72
2022/09/22 04:39:54;;;;;;;13.15;12.45;;;;;;;12.01;100.00;100863.31;5051177;28;20025;-72
2022/09/22 04:42:20;;;;;;;14.15;13.32;;;;;;;12.09;100.00;100863.25;5051993;28;20055;-73
2022/09/22 04:44:46;;;;;;;12.90;12.20;;;;;;;12.17;100.00;100864.00;5052436;28;20064;-72
2022/09/22 04:47:12;;;;;;;13.73;12.93;;;;;;;12.18;100.00;100849.72;5056436;28;20080;-72
2022/09/22 04:49:38;;;;;;;13.68;12.88;;;;;;;12.27;100.00;100857.66;5043555;28;20687;-72
2022/09/22 04:52:04;;;;;;;12.88;12.18;;;;;;;12.03;100.00;100848.00;5039340;28;20044;-72
2022/09/22 04:54:30;;;;;;;13.70;12.90;;;;;;;12.18;100.00;100860.34;5052608;28;20400;-72
2022/09/22 04:56:56;;;;;;;14.20;13.35;;;;;;;12.39;100.00;100865.03;5054426;28;20031;-72
2022/09/22 04:59:22;;;;;;;13.93;13.13;;;;;;;12.59;100.00;100859.22;5056172;28;20130;-72
2022/09/22 05:01:47;;;;;;;13.95;13.15;;;;;;;12.89;100.00;100865.44;5036548;28;20437;-73
2022/09/22 05:04:13;;;;;;;13.63;12.82;;;;;;;12.69;100.00;100860.59;5052989;28;20063;-72
2022/09/22 05:06:38;;;;;;;13.27;12.57;;;;;;;12.82;100.00;100859.19;5050179;28;20112;-70
2022/09/22 05:09:04;;;;;;;13.57;12.80;;;;;;;13.05;100.00;100865.25;5056903;28;20441;-70
2022/09/22 05:11:29;;;;;;;13.32;12.63;;;;;;;13.20;100.00;100860.78;5055272;28;20021;-72
2022/09/22 05:13:56;;;;;;;13.50;12.77;;;;;;;13.77;100.00;100857.44;5051624;28;20381;-70
2022/09/22 05:16:22;;;;;;;12.90;12.20;;;;;;;14.51;100.00;100849.19;5056715;28;20028;-68
2022/09/22 05:18:49;;;;;;;12.93;12.23;;;;;;;16.19;100.00;100846.16;5052266;28;20025;-71
2022/09/22 05:21:17;;;;;;;12.20;11.60;;;;;;;16.09;100.00;100837.72;5051027;28;20025;-69
2022/09/22 05:23:43;;;;;;;13.15;12.45;;;;;;;15.04;100.00;100828.19;5046662;28;20013;-70
2022/09/22 05:26:09;;;;;;;13.18;12.48;;;;;;;14.71;100.00;100845.84;5050234;28;20028;-72
2022/09/22 05:28:35;;;;;;;12.70;12.00;;;;;;;14.71;100.00;100838.66;5047087;28;20431;-71
2022/09/22 05:31:00;;;;;;;13.45;12.75;;;;;;;14.18;100.00;100834.69;5051098;28;20033;-70
2022/09/22 05:33:26;;;;;;;13.15;12.45;;;;;;;14.15;100.00;100845.72;5049810;28;20095;-70
2022/09/22 05:35:51;;;;;;;12.93;12.23;;;;;;;14.31;100.00;100846.28;5050895;28;20033;-70
2022/09/22 05:38:17;;;;;;;13.20;12.50;;;;;;;13.92;100.00;100838.72;5047311;28;20033;-71
2022/09/22 05:40:46;;;;;;;13.48;12.73;;;;;;;14.14;100.00;100849.41;5049595;28;20119;-71
2022/09/22 05:43:12;;;;;;;13.00;12.30;;;;;;;13.80;100.00;100822.38;5050144;28;20025;-70
2022/09/22 05:45:37;;;;;;;13.27;12.60;;;;;;;14.03;100.00;100842.75;5051418;28;20109;-71
2022/09/22 05:48:03;;;;;;;12.80;12.20;;;;;;;14.41;100.00;100847.84;5051139;28;20049;-71
2022/09/22 05:50:28;;;;;;;13.10;12.40;;;;;;;15.97;100.00;100840.13;5050911;28;20031;-70
2022/09/22 05:53:02;;;;;;;14.77;13.90;;;;;;;19.22;100.00;100838.81;5048986;28;20035;-71
2022/09/22 05:55:28;;;;;;;12.60;12.00;;;;;;;18.10;100.00;100833.38;5040415;28;20025;-69
2022/09/22 05:57:57;;;;;;;13.20;12.50;;;;;;;16.77;100.00;100843.72;5047780;28;20760;-70
2022/09/22 06:00:22;;;;;;;13.75;13.02;;;;;;;17.55;100.00;100819.63;5050223;28;20492;-71
2022/09/22 06:02:47;;;;;;;12.25;11.65;;;;;;;19.22;100.00;100838.81;5051078;28;20032;-71
2022/09/22 06:05:13;;;;;;;12.35;11.75;;;;;;;18.67;100.00;100825.31;5051041;28;20037;-71
2022/09/22 06:07:39;;;;;;;13.02;12.32;;;;;;;20.82;100.00;100835.53;5051190;28;20063;-71
2022/09/22 06:10:05;;;;;;;12.15;11.55;;;;;;;18.59;100.00;100836.31;5051076;28;20021;-71
2022/09/22 06:12:31;;;;;;;12.27;11.68;;;;;;;18.35;100.00;100830.69;5050983;28;20516;-71
2022/09/22 06:14:56;;;;;;;12.70;12.10;;;;;;;18.13;100.00;100837.47;5050962;28;20040;-72
2022/09/22 06:17:22;;;;;;;12.25;11.65;;;;;;;17.64;100.00;100831.75;5038234;28;20037;-70
2022/09/22 06:19:49;;;;;;;13.88;13.18;;;;;;;16.55;100.00;100839.59;5051218;28;20025;-72
2022/09/22 06:22:15;;;;;;;13.68;12.98;;;;;;;16.43;100.00;100843.91;5040052;28;20485;-72
2022/09/22 06:24:40;;;;;;;12.77;12.18;;;;;;;16.80;100.00;100842.50;5049523;28;20090;-71
2022/09/22 06:27:06;;;;;;;13.38;12.68;;;;;;;16.48;100.00;100828.88;5061424;28;20029;-71
2022/09/22 06:29:31;;;;;;;12.90;12.30;;;;;;;16.26;100.00;100833.59;5049620;28;20119;-69
2022/09/22 06:31:57;;;;;;;13.93;13.18;;;;;;;15.82;100.00;100826.09;5051070;28;20125;-72
2022/09/22 06:34:22;;;;;;;13.30;12.60;;;;;;;15.45;100.00;100840.75;5050824;28;20029;-70
2022/09/22 06:36:49;;;;;;;13.35;12.65;;;;;;;15.48;100.00;100841.16;5049198;28;20029;-70
2022/09/22 06:39:14;;;;;;;12.98;12.30;;;;;;;15.25;100.00;100834.47;5050316;28;20493;-70
2022/09/22 06:41:40;;;;;;;12.80;12.20;;;;;;;15.03;100.00;100821.19;5050691;28;20035;-70
2022/09/22 06:44:05;;;;;;;13.23;12.52;;;;;;;14.97;100.00;100838.00;5051200;28;20032;-71
2022/09/22 06:46:32;;;;;;;13.65;12.95;;;;;;;15.05;100.00;100840.53;5054430;28;20021;-71
2022/09/22 06:48:58;;;;;;;13.15;12.45;;;;;;;15.08;100.00;100847.34;5052420;28;20127;-71
2022/09/22 06:51:25;;;;;;;13.20;12.50;;;;;;;14.63;100.00;100844.97;5053274;28;20040;-72
2022/09/22 06:53:54;;;;;;;13.73;13.02;;;;;;;14.87;100.00;100838.38;5052799;28;20548;-70
2022/09/22 06:56:24;;;;;;;13.18;12.48;;;;;;;14.73;100.00;100846.47;5050746;28;20036;-71
2022/09/22 06:58:50;;;;;;;14.13;13.32;;;;;;;14.57;100.00;100840.41;5053981;28;20052;-71
2022/09/22 07:01:17;;;;;;;13.48;12.77;;;;;;;14.56;100.00;100852.09;5051432;28;20060;-71
2022/09/22 07:03:44;;;;;;;13.45;12.75;;;;;;;15.43;100.00;100848.97;5054353;28;20024;-71
2022/09/22 07:06:15;;;;;;;13.32;12.63;;;;;;;16.92;100.00;100842.69;5053224;28;20059;-72
2022/09/22 07:08:41;;;;;;;12.70;12.07;;;;;;;18.84;100.00;100831.78;5052379;28;20388;-70
2022/09/22 07:11:08;;;;;;;12.30;11.70;;;;;;;18.98;100.00;100837.84;5054243;28;20025;-70
2022/09/22 07:13:38;;;;;;;12.32;11.73;;;;;;;17.91;100.00;100824.38;5054152;28;20083;-71
2022/09/22 07:16:11;;;;;;;12.30;11.70;;;;;;;18.19;100.00;100823.19;5054207;28;20514;-70
2022/09/22 07:18:42;;;;;;;12.65;12.05;;;;;;;19.98;100.00;100829.41;5054541;28;20051;-70
2022/09/22 07:21:11;;;;;;;12.43;11.82;;;;;;;19.49;100.00;100837.47;5053954;28;20090;-71
2022/09/22 07:23:37;;;;;;;12.98;12.27;;;;;;;18.33;100.00;100830.09;5052549;28;20033;-70
2022/09/22 07:26:05;;;;;;;12.50;11.90;;;;;;;19.22;100.00;100834.25;5053255;28;20056;-72
2022/09/22 07:28:34;;;;;;;13.20;12.50;;;;;;;18.23;100.00;100833.28;5053573;28;20047;-71
2022/09/22 07:31:07;;;;;;;13.07;12.38;;;;;;;17.02;100.00;100840.38;5053143;28;20025;-70
2022/09/22 07:33:37;;;;;;;12.30;11.70;;;;;;;16.55;100.00;100837.75;5053454;28;20023;-71
2022/09/22 07:36:07;;;;;;;12.77;12.18;;;;;;;16.46;100.00;100840.84;5052047;28;20044;-71
2022/09/22 07:38:35;;;;;;;13.23;12.52;;;;;;;16.73;100.00;100836.31;5053524;28;20029;-70
2022/09/22 07:41:07;;;;;;;12.85;12.25;;;;;;;17.21;100.00;100836.84;5052662;28;20036;-71
2022/09/22 07:43:33;;;;;;;12.63;12.02;;;;;;;18.33;100.00;100840.84;5053378;28;20044;-70
2022/09/22 07:45:58;;;;;;;12.75;12.15;;;;;;;20.99;100.00;100828.38;5052456;28;20591;-71
2022/09/22 07:48:35;;;;;;;12.23;11.63;;;;;;;21.06;100.00;100829.06;5053351;28;20036;-70
2022/09/22 07:51:07;;;;;;;11.93;11.32;;;;;;;18.20;100.00;100822.13;5045349;28;20081;-71
2022/09/22 07:53:34;;;;;;;12.65;12.05;;;;;;;18.67;100.00;100828.84;5053457;28;20029;-71
2022/09/22 07:56:12;;;;;;;12.68;12.07;;;;;;;18.12;100.00;100814.34;5053294;28;20036;-70
2022/09/22 07:58:55;;;;;;;13.20;12.52;;;;;;;18.38;100.00;100832.97;5042310;28;20026;-72
2022/09/22 08:01:23;;;;;;;12.60;12.00;;;;;;;18.45;100.00;100824.84;5050868;28;20039;-71
2022/09/22 08:03:49;;;;;;;12.95;12.32;;;;;;;18.72;100.00;100817.41;5053434;28;20031;-71
2022/09/22 08:06:18;;;;;;;12.45;11.85;;;;;;;19.04;100.00;100835.09;5048924;28;20027;-71
2022/09/22 08:08:52;;;;;;;12.27;11.68;;;;;;;19.32;100.00;100831.06;5052919;28;20028;-70
2022/09/22 08:11:21;;;;;;;12.50;11.90;;;;;;;19.21;100.00;100827.25;5053045;28;20508;-69
2022/09/22 08:13:53;;;;;;;12.60;12.00;;;;;;;19.64;100.00;100828.22;5052738;28;20044;-73
2022/09/22 08:16:24;;;;;;;12.40;11.80;;;;;;;19.76;100.00;100819.16;5050993;28;20028;-69
2022/09/22 08:18:59;;;;;;;12.27;11.68;;;;;;;19.60;100.00;100819.75;5053968;28;20025;-70
2022/09/22 08:21:26;;;;;;;12.60;12.00;;;;;;;19.63;100.00;100829.28;5051483;28;20400;-71
2022/09/22 08:23:53;;;;;;;12.30;11.70;;;;;;;18.84;100.00;100821.00;5051573;28;20040;-71
2022/09/22 08:26:20;;;;;;;13.60;12.90;;;;;;;18.65;100.00;100827.34;5049637;28;20047;-70
2022/09/22 08:28:49;;;;;;;12.45;11.85;;;;;;;17.61;100.00;100821.41;5052543;28;20586;-70
2022/09/22 08:31:18;;;;;;;12.55;11.95;;;;;;;17.34;100.00;100817.22;5052644;28;20461;-70
2022/09/22 08:33:45;;;;;;;13.38;12.68;;;;;;;17.39;100.00;100826.25;5055304;28;20071;-70
2022/09/22 08:36:10;;;;;;;12.93;12.32;;;;;;;17.01;100.00;100812.78;5044490;28;20076;-71
2022/09/22 08:38:36;;;;;;;13.18;12.48;;;;;;;17.40;100.00;100802.94;5046065;28;20452;-71
2022/09/22 08:41:14;;;;;;;12.68;12.07;;;;;;;17.58;100.00;100821.03;5042224;28;20032;-70
2022/09/22 08:44:36;;;;;;;13.30;12.60;;;;;;;18.22;100.00;100818.22;5049607;28;20465;-70
2022/09/22 08:47:02;;;;;;;13.27;12.57;;;;;;;18.72;100.00;100822.78;4987688;28;20065;-71
2022/09/22 08:52:34;;;;;;;12.30;11.70;;;;;;;18.15;100.00;100812.06;5052237;28;20031;-72
2022/09/22 08:55:01;;;;;;;12.75;12.15;;;;;;;17.88;100.00;100805.22;5051996;28;20036;-71
2022/09/22 08:57:40;;;;;;;13.00;12.30;;;;;;;18.87;100.00;100815.19;5052011;28;20392;-71
2022/09/22 09:00:06;;;;;;;12.55;11.95;;;;;;;21.29;100.00;100819.31;5051837;28;20029;-70
2022/09/22 09:02:39;;;;;;;12.20;11.60;;;;;;;21.54;100.00;100809.06;5052030;28;20047;-71
2022/09/22 09:05:23;;;;;;;13.05;12.38;;;;;;;21.96;98.32;100800.63;5051978;28;20417;-71
2022/09/22 09:08:21;;;;;;;12.43;11.82;;;;;;;22.20;96.79;100791.38;5050119;28;20033;-71
2022/09/22 09:11:07;;;;;;;12.07;11.48;;;;;;;21.72;96.42;100800.75;5024787;28;20036;-71
2022/09/22 09:13:48;;;;;;;12.40;11.80;;;;;;;20.13;100.00;100795.63;5050920;28;20056;-70
2022/09/22 09:16:25;;;;;;;12.65;12.05;;;;;;;19.68;100.00;100794.41;5052362;28;20453;-71
2022/09/22 09:19:15;;;;;;;12.48;11.88;;;;;;;19.52;100.00;100793.13;5051523;28;20040;-71
2022/09/22 09:21:51;;;;;;;12.48;11.88;;;;;;;19.26;100.00;100792.44;5051565;28;20086;-71
2022/09/22 09:24:36;;;;;;;13.23;12.52;;;;;;;18.75;100.00;100806.22;5049688;28;20392;-71
2022/09/22 09:27:12;;;;;;;12.73;12.13;;;;;;;17.26;100.00;100806.72;5041839;28;20025;-70
2022/09/22 09:30:01;;;;;;;12.70;12.10;;;;;;;16.76;100.00;100799.22;5049133;28;20017;-70
2022/09/22 09:32:42;;;;;;;14.40;13.60;;;;;;;16.16;100.00;100809.09;5051501;28;20476;-73
2022/09/22 09:35:13;;;;;;;13.88;13.18;;;;;;;16.23;100.00;100815.28;5051271;28;20106;-72
2022/09/22 09:37:42;;;;;;;12.60;12.00;;;;;;;15.83;100.00;100808.19;5051373;28;20025;-71
2022/09/22 09:40:14;;;;;;;12.95;12.35;;;;;;;16.25;100.00;100815.06;5046798;28;20033;-70
2022/09/22 09:42:42;;;;;;;13.30;12.60;;;;;;;16.45;100.00;100807.88;5048395;28;20028;-70
2022/09/22 09:45:13;;;;;;;12.60;12.00;;;;;;;16.25;100.00;100786.44;5051543;28;20120;-69
2022/09/22 09:48:00;;;;;;;13.35;12.65;;;;;;;16.20;100.00;100802.28;5050176;28;20409;-71
2022/09/22 09:50:30;;;;;;;12.77;12.18;;;;;;;17.00;100.00;100802.25;5051466;28;20027;-71
2022/09/22 09:52:58;;;;;;;12.70;12.10;;;;;;;17.21;100.00;100807.34;5051530;28;20053;-70
2022/09/22 09:55:25;;;;;;;12.05;11.45;;;;;;;17.27;100.00;100803.84;5051650;28;20099;-70
2022/09/22 09:58:00;;;;;;;13.07;12.38;;;;;;;17.72;100.00;100806.56;5050526;28;20029;-70
2022/09/22 10:00:32;;;;;;;12.77;12.15;;;;;;;18.30;100.00;100801.00;5050291;28;20056;-70
2022/09/22 10:03:09;;;;;;;12.60;12.00;;;;;;;18.46;100.00;100796.94;5051600;28;20032;-71
2022/09/22 10:05:36;;;;;;;12.63;12.02;;;;;;;18.48;100.00;100790.31;5037533;28;20025;-71
2022/09/22 10:08:20;;;;;;;12.13;11.52;;;;;;;18.24;100.00;100799.19;5051211;28;20455;-71
2022/09/22 10:10:46;;;;;;;12.00;11.40;;;;;;;18.70;100.00;100788.06;5050939;28;20024;-71
2022/09/22 10:13:13;;;;;;;12.70;12.10;;;;;;;18.47;100.00;100794.03;5050937;28;20059;-70
2022/09/22 10:15:40;;;;;;;13.90;13.10;;;;;;;17.33;100.00;100803.00;5050115;28;20037;-71
2022/09/22 10:18:24;;;;;;;12.70;12.10;;;;;;;16.22;100.00;100802.09;5049345;28;20395;-70
2022/09/22 10:21:16;;;;;;;13.53;12.83;;;;;;;16.53;100.00;100802.31;5042311;28;20468;-70
2022/09/22 10:23:46;;;;;;;13.95;13.15;;;;;;;15.86;100.00;100808.59;5039191;28;20738;-70
2022/09/22 10:26:18;;;;;;;12.98;12.27;;;;;;;15.57;100.00;100812.44;5044097;28;20398;-71
2022/09/22 10:28:49;;;;;;;13.52;12.82;;;;;;;15.44;100.00;100807.03;5052306;28;20025;-71
2022/09/22 10:31:23;;;;;;;13.32;12.63;;;;;;;14.81;100.00;100803.59;5047617;28;20083;-71
2022/09/22 10:33:57;;;;;;;12.48;11.88;;;;;;;15.15;100.00;100819.63;5048175;28;20032;-71
2022/09/22 10:36:25;;;;;;;12.70;12.10;;;;;;;15.23;100.00;100821.31;5054172;28;20033;-71
2022/09/22 10:38:53;;;;;;;13.32;12.63;;;;;;;15.03;100.00;100828.38;5053349;28;20033;-69
2022/09/22 10:41:25;;;;;;;13.40;12.70;;;;;;;15.12;100.00;100820.00;5054461;28;20024;-70
2022/09/22 10:44:13;;;;;;;13.23;12.52;;;;;;;15.18;100.00;100824.56;5054422;28;20071;-70
2022/09/22 10:47:07;;;;;;;13.57;12.88;;;;;;;15.28;100.00;100823.41;5054293;28;20021;-70
2022/09/22 10:49:38;;;;;;;14.00;13.20;;;;;;;15.57;100.00;100828.47;5051306;28;20025;-70
2022/09/22 10:52:20;;;;;;;14.13;13.32;;;;;;;15.62;100.00;100815.34;5054253;28;20044;-70
2022/09/22 10:54:49;;;;;;;13.70;13.00;;;;;;;15.78;100.00;100814.16;5041410;28;20033;-72
2022/09/22 10:57:29;;;;;;;13.32;12.63;;;;;;;16.33;100.00;100811.38;5054360;28;20078;-71
2022/09/22 11:00:10;;;;;;;13.98;13.18;;;;;;;16.66;100.00;100812.16;5052730;28;20527;-71
2022/09/22 11:02:59;;;;;;;13.85;13.05;;;;;;;16.98;100.00;100804.34;5053703;28;20033;-72
2022/09/22 11:14:34;;;;;;;14.23;13.43;;;;;;;17.18;100.00;100788.19;5053889;28;20510;-72
2022/09/22 11:17:02;;;;;;;12.60;12.00;;;;;;;17.00;100.00;100788.88;5042081;28;20025;-71
2022/09/22 11:19:39;;;;;;;12.88;12.25;;;;;;;17.90;100.00;100777.13;5053819;28;20147;-69
2022/09/22 11:22:36;;;;;;;13.30;12.60;;;;;;;16.88;100.00;100775.28;5052989;28;20511;-71
2022/09/22 11:25:20;;;;;;;12.63;12.02;;;;;;;16.65;100.00;100780.25;5046624;28;20063;-71
2022/09/22 11:27:54;;;;;;;13.10;12.40;;;;;;;16.48;100.00;100769.13;5053669;28;20433;-71